Time;durP1;ratioP1;P1;durP2;ratioP2;P2;SDS_P1;SDS_P2;PMS_P1;PMS_P2;Temp;Humidity;BMP_temperature;BMP_pressure;BME280_temperature;BME280_humidity;BME280_pressure;Samples;Min_cycle;Max_cycle;Signal;HPM_P1;HPM_P2
2024/04/08 00:01:55;;;;;;;2.80;0.63;;;13.70;99.90;;;;;;5533187;26;19997;-79
2024/04/08 00:04:21;;;;;;;3.78;0.10;;;13.80;99.90;;;;;;5531612;25;20001;-79
2024/04/08 00:06:46;;;;;;;2.22;0.15;;;13.70;99.90;;;;;;5531769;25;19989;-79
2024/04/08 00:09:12;;;;;;;2.88;0.30;;;13.70;99.90;;;;;;5531950;25;20001;-79
2024/04/08 00:11:37;;;;;;;1.75;0.00;;;13.70;99.90;;;;;;5529584;25;20001;-79
2024/04/08 00:14:03;;;;;;;4.47;0.17;;;13.70;99.90;;;;;;5528425;25;19999;-78
2024/04/08 00:16:32;;;;;;;1.25;0.00;;;13.70;99.90;;;;;;5531069;25;19989;-78
2024/04/08 00:18:57;;;;;;;;;;;13.70;99.90;;;;;;5531695;25;19997;-79
2024/04/08 00:21:23;;;;;;;3.47;0.10;;;13.70;99.90;;;;;;5528397;25;19923;-78
2024/04/08 00:23:49;;;;;;;1.17;0.10;;;13.70;99.90;;;;;;5529708;26;20446;-78
2024/04/08 00:26:15;;;;;;;3.30;0.30;;;13.70;99.90;;;;;;5528072;25;19990;-78
2024/04/08 00:28:41;;;;;;;2.97;0.03;;;13.70;99.90;;;;;;5527159;25;19993;-78
2024/04/08 00:31:08;;;;;;;2.92;0.10;;;13.70;99.90;;;;;;5529030;25;20314;-78
2024/04/08 00:33:34;;;;;;;0.63;0.28;;;13.60;99.90;;;;;;5531072;25;19989;-79
2024/04/08 00:36:01;;;;;;;2.45;0.00;;;13.70;99.90;;;;;;5530617;25;20348;-79
2024/04/08 00:38:27;;;;;;;1.88;0.00;;;13.70;99.90;;;;;;5528835;25;19985;-79
2024/04/08 00:40:53;;;;;;;2.60;0.10;;;13.70;99.90;;;;;;5531064;25;20033;-79
2024/04/08 00:43:19;;;;;;;1.30;0.00;;;13.70;99.90;;;;;;5530229;25;20000;-79
2024/04/08 00:45:49;;;;;;;2.55;0.15;;;13.70;99.90;;;;;;5530513;25;20000;-79
2024/04/08 00:48:16;;;;;;;1.20;0.20;;;13.70;99.90;;;;;;5531019;25;19997;-79
2024/04/08 00:50:49;;;;;;;1.85;0.03;;;13.70;99.90;;;;;;5529801;25;20005;-79
2024/04/08 00:53:15;;;;;;;4.75;0.28;;;13.70;99.90;;;;;;5530586;25;20025;-78
2024/04/08 00:55:42;;;;;;;2.80;0.10;;;13.70;99.90;;;;;;5530339;25;19993;-78
2024/04/08 00:58:07;;;;;;;2.53;0.35;;;13.60;99.90;;;;;;5527529;26;19989;-79
2024/04/08 01:00:33;;;;;;;0.70;0.20;;;13.70;99.90;;;;;;5529611;25;19997;-79
2024/04/08 01:03:02;;;;;;;0.95;0.10;;;13.60;99.90;;;;;;5530519;25;20005;-79
2024/04/08 01:05:28;;;;;;;2.70;0.15;;;13.60;99.90;;;;;;5529408;25;19993;-78
2024/04/08 01:07:54;;;;;;;3.67;0.30;;;13.60;99.90;;;;;;5530188;25;20065;-80
2024/04/08 01:10:20;;;;;;;2.65;0.10;;;13.60;99.90;;;;;;5530524;25;20433;-79
2024/04/08 01:12:46;;;;;;;2.42;0.20;;;13.60;99.90;;;;;;5530463;25;19994;-79
2024/04/08 01:15:12;;;;;;;1.98;0.50;;;13.60;99.90;;;;;;5528908;26;20318;-79
2024/04/08 01:17:37;;;;;;;3.53;0.32;;;13.60;99.90;;;;;;5530455;25;20449;-79
2024/04/08 01:20:04;;;;;;;6.55;0.52;;;13.60;99.90;;;;;;5528090;25;20004;-79
2024/04/08 01:22:31;;;;;;;0.93;0.20;;;13.60;99.90;;;;;;5528356;25;20337;-79
2024/04/08 01:25:04;;;;;;;5.03;0.25;;;13.60;99.90;;;;;;5527983;26;20004;-79
2024/04/08 01:27:31;;;;;;;2.70;0.98;;;13.60;99.90;;;;;;5529484;25;20009;-79
2024/04/08 01:29:56;;;;;;;1.98;0.25;;;13.60;99.90;;;;;;5527867;25;20032;-78
2024/04/08 01:32:22;;;;;;;1.00;0.15;;;13.50;99.90;;;;;;5528807;25;19994;-79
2024/04/08 01:34:48;;;;;;;3.00;0.38;;;13.60;99.90;;;;;;5529604;25;20008;-79
2024/04/08 01:37:13;;;;;;;5.78;0.35;;;13.50;99.90;;;;;;5527602;26;20000;-79
2024/04/08 01:39:39;;;;;;;2.42;0.40;;;13.50;99.90;;;;;;5530087;26;19993;-79
2024/04/08 01:42:05;;;;;;;5.25;0.20;;;13.50;99.90;;;;;;5531910;25;20057;-79
2024/04/08 01:44:30;;;;;;;2.50;0.32;;;13.50;99.90;;;;;;5531038;26;20466;-79
2024/04/08 01:46:56;;;;;;;4.82;0.65;;;13.50;99.90;;;;;;5533299;25;20004;-79
2024/04/08 01:49:26;;;;;;;5.97;0.70;;;13.50;99.90;;;;;;5531394;26;20005;-79
2024/04/08 01:51:52;;;;;;;5.00;0.35;;;13.50;99.90;;;;;;5533448;25;20001;-79
2024/04/08 01:54:18;;;;;;;1.70;0.40;;;13.50;99.90;;;;;;5531783;25;20009;-79
2024/04/08 01:56:44;;;;;;;1.45;0.65;;;13.40;99.90;;;;;;5533321;25;20068;-79
2024/04/08 01:59:09;;;;;;;2.25;0.40;;;13.40;99.90;;;;;;5532987;25;20008;-79
2024/04/08 02:01:35;;;;;;;2.90;0.40;;;13.40;99.90;;;;;;5533536;25;19997;-79
2024/04/08 02:04:01;;;;;;;4.00;0.57;;;13.40;99.90;;;;;;5532270;25;20009;-79
2024/04/08 02:06:26;;;;;;;2.47;0.68;;;13.30;99.90;;;;;;5533293;25;19993;-79
2024/04/08 02:08:52;;;;;;;4.72;0.70;;;13.30;99.90;;;;;;5531295;26;20044;-79
2024/04/08 02:11:18;;;;;;;3.13;0.75;;;;;;;;;;5532601;25;19994;-78
2024/04/08 02:13:44;;;;;;;3.72;0.57;;;13.20;99.90;;;;;;5530680;26;19993;-79
2024/04/08 02:16:10;;;;;;;2.83;1.02;;;13.20;99.90;;;;;;5530820;25;19993;-79
2024/04/08 02:18:36;;;;;;;3.75;0.80;;;13.10;99.90;;;;;;5530395;25;20005;-79
2024/04/08 02:21:02;;;;;;;2.38;0.98;;;13.20;99.90;;;;;;5532978;25;20512;-79
2024/04/08 02:23:28;;;;;;;4.78;0.90;;;13.10;99.90;;;;;;5533280;25;20090;-79
2024/04/08 02:25:54;;;;;;;2.80;0.85;;;13.10;99.90;;;;;;5533086;25;20066;-79
2024/04/08 02:28:20;;;;;;;3.40;0.55;;;13.10;99.90;;;;;;5532935;25;19994;-79
2024/04/08 02:30:46;;;;;;;3.03;0.70;;;13.10;99.90;;;;;;5531008;26;20022;-79
2024/04/08 02:33:12;;;;;;;2.60;1.42;;;13.00;99.90;;;;;;5530629;26;19989;-79
2024/04/08 02:35:38;;;;;;;1.98;0.80;;;13.00;99.90;;;;;;5531270;25;20000;-79
2024/04/08 02:38:04;;;;;;;2.58;0.85;;;13.00;99.90;;;;;;5531850;26;20382;-79
2024/04/08 02:40:34;;;;;;;5.80;1.02;;;13.00;99.90;;;;;;5532954;25;20030;-79
2024/04/08 02:43:03;;;;;;;3.25;0.80;;;13.00;99.90;;;;;;5531518;26;20000;-79
2024/04/08 02:45:29;;;;;;;2.33;0.90;;;13.00;99.90;;;;;;5530415;25;20008;-79
2024/04/08 02:47:57;;;;;;;4.82;1.33;;;12.90;99.90;;;;;;5530652;25;19989;-79
2024/04/08 02:50:22;;;;;;;3.55;0.85;;;12.90;99.90;;;;;;5531758;25;20004;-79
2024/04/08 02:52:48;;;;;;;6.75;0.90;;;13.00;99.90;;;;;;5530391;25;19997;-79
2024/04/08 02:55:14;;;;;;;3.10;0.63;;;13.00;99.90;;;;;;5532127;25;19994;-79
2024/04/08 02:57:39;;;;;;;2.00;0.80;;;13.00;99.90;;;;;;5532714;25;19994;-79
2024/04/08 03:00:06;;;;;;;3.67;1.23;;;13.00;99.90;;;;;;5531166;25;19993;-79
2024/04/08 03:02:32;;;;;;;2.35;1.13;;;13.00;99.90;;;;;;5532622;25;19997;-79
2024/04/08 03:04:57;;;;;;;2.20;1.10;;;13.00;99.90;;;;;;5532518;25;20004;-79
2024/04/08 03:07:23;;;;;;;3.20;1.15;;;13.00;99.90;;;;;;5530861;25;19998;-79
2024/04/08 03:09:50;;;;;;;2.83;1.15;;;12.90;99.90;;;;;;5531709;25;20005;-79
2024/04/08 03:12:16;;;;;;;2.45;1.15;;;12.90;99.90;;;;;;5532686;25;20033;-79
2024/04/08 03:14:41;;;;;;;4.35;0.90;;;12.90;99.90;;;;;;5530408;26;20445;-79
2024/04/08 03:17:07;;;;;;;3.30;1.25;;;12.90;99.90;;;;;;5532913;25;19993;-79
2024/04/08 03:19:33;;;;;;;12.75;1.92;;;12.80;99.90;;;;;;5530864;25;20004;-79
2024/04/08 03:21:58;;;;;;;2.80;0.80;;;12.90;99.90;;;;;;5530200;26;19994;-79
2024/04/08 03:24:26;;;;;;;1.58;0.82;;;12.90;99.90;;;;;;5530542;26;19997;-79
2024/04/08 03:26:52;;;;;;;2.08;1.20;;;12.80;99.90;;;;;;5530801;25;20009;-79
2024/04/08 03:29:17;;;;;;;3.90;1.13;;;12.80;99.90;;;;;;5530091;26;20066;-79
2024/04/08 03:31:43;;;;;;;4.13;1.38;;;12.80;99.90;;;;;;5532088;25;20332;-79
2024/04/08 03:34:08;;;;;;;2.38;1.40;;;12.80;99.90;;;;;;5532220;25;20005;-79
2024/04/08 03:36:35;;;;;;;3.65;1.63;;;12.80;99.90;;;;;;5530754;26;19989;-79
2024/04/08 03:39:00;;;;;;;4.38;1.00;;;12.80;99.90;;;;;;5529972;25;20009;-79
2024/04/08 03:41:26;;;;;;;5.28;0.93;;;12.80;99.90;;;;;;5528884;26;19998;-79
2024/04/08 03:43:51;;;;;;;4.97;1.35;;;12.70;99.90;;;;;;5529903;25;20004;-79
2024/04/08 03:46:17;;;;;;;3.05;1.63;;;12.70;99.90;;;;;;5531020;25;20001;-79
2024/04/08 03:48:43;;;;;;;4.00;1.13;;;12.70;99.90;;;;;;5531571;25;20073;-79
2024/04/08 03:51:12;;;;;;;2.80;0.70;;;12.70;99.90;;;;;;5530888;25;20004;-79
2024/04/08 03:53:38;;;;;;;5.72;1.17;;;12.60;99.90;;;;;;5529648;25;20406;-79
2024/04/08 03:56:05;;;;;;;3.63;1.00;;;12.70;99.90;;;;;;5531203;25;20001;-79
2024/04/08 03:58:31;;;;;;;3.85;0.70;;;12.60;99.90;;;;;;5529567;26;20002;-79
2024/04/08 04:00:57;;;;;;;2.85;0.73;;;12.60;99.90;;;;;;5531323;25;20069;-79
2024/04/08 04:03:22;;;;;;;5.20;0.90;;;12.60;99.90;;;;;;5528042;26;20029;-79
2024/04/08 04:05:48;;;;;;;1.92;0.77;;;12.60;99.90;;;;;;5531846;25;19998;-79
2024/04/08 04:08:13;;;;;;;4.75;1.15;;;12.60;99.90;;;;;;5532061;25;20005;-79
2024/04/08 04:10:39;;;;;;;4.13;0.75;;;12.60;99.90;;;;;;5532296;25;19993;-79
2024/04/08 04:13:05;;;;;;;3.95;0.80;;;12.60;99.90;;;;;;5531149;25;20004;-79
2024/04/08 04:15:30;;;;;;;3.78;0.77;;;12.70;99.90;;;;;;5530798;25;20008;-79
2024/04/08 04:17:56;;;;;;;1.38;0.60;;;12.70;99.90;;;;;;5528916;26;20061;-79
2024/04/08 04:20:24;;;;;;;3.28;0.68;;;12.70;99.90;;;;;;5531641;25;20078;-79
2024/04/08 04:22:50;;;;;;;2.53;0.47;;;12.70;99.90;;;;;;5530697;25;20009;-79
2024/04/08 04:25:15;;;;;;;4.22;0.90;;;12.70;99.90;;;;;;5529222;25;19993;-79
2024/04/08 04:27:41;;;;;;;6.43;1.15;;;12.70;99.90;;;;;;5531140;25;20004;-79
2024/04/08 04:30:07;;;;;;;2.60;0.70;;;12.60;99.90;;;;;;5530375;25;19997;-79
2024/04/08 04:32:33;;;;;;;1.95;0.50;;;;;;;;;;5528449;26;20004;-79
2024/04/08 04:34:59;;;;;;;3.20;0.60;;;12.50;99.90;;;;;;5530456;26;20324;-79
2024/04/08 04:37:25;;;;;;;5.13;0.70;;;12.50;99.90;;;;;;5530310;25;20013;-79
2024/04/08 04:39:50;;;;;;;1.55;0.60;;;12.50;99.90;;;;;;5530272;25;20005;-79
2024/04/08 04:42:17;;;;;;;3.92;0.50;;;12.40;99.90;;;;;;5529784;25;19994;-80
2024/04/08 04:44:42;;;;;;;3.35;0.60;;;12.40;99.90;;;;;;5530366;25;19998;-79
2024/04/08 04:47:09;;;;;;;4.00;0.70;;;12.30;99.90;;;;;;5530206;25;20521;-79
2024/04/08 04:49:35;;;;;;;2.10;0.57;;;12.30;99.90;;;;;;5530758;25;20001;-79
2024/04/08 04:52:00;;;;;;;2.25;0.60;;;12.30;99.90;;;;;;5530814;25;20069;-79
2024/04/08 04:54:26;;;;;;;5.53;1.42;;;12.30;99.90;;;;;;5530585;25;19993;-79
2024/04/08 04:56:52;;;;;;;1.45;0.60;;;12.20;99.90;;;;;;5528459;26;19990;-79
2024/04/08 04:59:17;;;;;;;4.18;0.45;;;12.20;99.90;;;;;;5529971;25;20005;-79
2024/04/08 05:01:43;;;;;;;2.83;0.40;;;12.10;99.90;;;;;;5529076;25;19997;-79
2024/04/08 05:04:12;;;;;;;2.92;0.82;;;12.10;99.90;;;;;;5531630;25;20001;-79
2024/04/08 05:06:37;;;;;;;2.25;0.50;;;12.10;99.90;;;;;;5529937;25;20065;-79
2024/04/08 05:09:04;;;;;;;2.13;0.75;;;12.10;99.90;;;;;;5528729;25;20005;-80
2024/04/08 05:11:29;;;;;;;3.05;0.63;;;12.10;99.90;;;;;;5529280;25;20025;-79
2024/04/08 05:13:55;;;;;;;2.55;0.70;;;12.20;99.90;;;;;;5530052;25;19993;-79
2024/04/08 05:16:21;;;;;;;1.42;0.68;;;12.10;99.90;;;;;;5531860;25;19997;-79
2024/04/08 05:18:46;;;;;;;2.08;0.40;;;12.10;99.90;;;;;;5531962;25;19994;-79
2024/04/08 05:21:12;;;;;;;2.60;0.47;;;12.10;99.90;;;;;;5529671;25;19993;-79
2024/04/08 05:23:38;;;;;;;5.22;0.70;;;12.20;99.90;;;;;;5530966;25;19994;-79
2024/04/08 05:26:04;;;;;;;1.75;0.50;;;12.20;99.90;;;;;;5530521;25;20013;-79
2024/04/08 05:28:30;;;;;;;1.70;0.75;;;12.20;99.90;;;;;;5531499;25;19994;-79
2024/04/08 05:30:56;;;;;;;4.88;0.40;;;12.20;99.90;;;;;;5529806;26;20369;-79
2024/04/08 05:33:21;;;;;;;7.22;0.98;;;12.20;99.90;;;;;;5529225;25;20453;-79
2024/04/08 05:35:50;;;;;;;2.08;0.70;;;12.20;99.90;;;;;;5529111;25;19994;-79
2024/04/08 05:38:16;;;;;;;6.35;1.05;;;;;;;;;;5530172;25;20306;-79
2024/04/08 05:40:42;;;;;;;1.92;0.55;;;12.20;99.90;;;;;;5529451;26;20004;-79
2024/04/08 05:43:10;;;;;;;1.55;0.38;;;12.30;99.90;;;;;;5529763;26;19993;-80
2024/04/08 05:45:36;;;;;;;2.42;0.68;;;12.30;99.90;;;;;;5529150;26;20002;-80
2024/04/08 05:48:04;;;;;;;2.00;0.82;;;12.40;99.90;;;;;;5530804;25;20449;-79
2024/04/08 05:50:29;;;;;;;2.22;0.52;;;12.40;99.90;;;;;;5528135;26;20076;-79
2024/04/08 05:52:55;;;;;;;1.65;0.55;;;12.60;99.90;;;;;;5529231;25;20516;-79
2024/04/08 05:55:20;;;;;;;2.25;0.95;;;12.60;99.90;;;;;;5529072;26;20537;-79
2024/04/08 05:57:46;;;;;;;1.77;0.77;;;12.70;99.90;;;;;;5528853;25;19990;-79
2024/04/08 06:00:15;;;;;;;3.17;0.55;;;12.70;99.90;;;;;;5529047;25;20008;-79
2024/04/08 06:02:42;;;;;;;3.53;0.80;;;12.80;99.90;;;;;;5531375;25;19993;-79
2024/04/08 06:05:08;;;;;;;3.40;0.73;;;12.90;99.90;;;;;;5529941;26;20333;-79
2024/04/08 06:07:35;;;;;;;3.10;0.98;;;13.00;99.90;;;;;;5528629;25;19993;-79
2024/04/08 06:10:03;;;;;;;2.33;0.80;;;13.30;99.90;;;;;;5528972;26;20006;-79
2024/04/08 06:12:29;;;;;;;4.43;0.77;;;13.30;99.90;;;;;;5528854;26;20332;-79
2024/04/08 06:14:54;;;;;;;4.28;0.98;;;13.40;99.90;;;;;;5530009;25;20004;-79
2024/04/08 06:17:20;;;;;;;5.15;0.57;;;13.60;99.90;;;;;;5530933;25;20405;-79
2024/04/08 06:19:46;;;;;;;3.33;1.00;;;13.60;99.90;;;;;;5531680;25;20006;-79
2024/04/08 06:22:13;;;;;;;2.78;0.55;;;13.60;99.90;;;;;;5530842;25;19993;-79
2024/04/08 06:24:41;;;;;;;2.43;0.83;;;13.60;99.90;;;;;;5529463;25;19993;-79
2024/04/08 06:27:06;;;;;;;1.92;0.90;;;13.60;99.90;;;;;;5533556;25;20436;-79
2024/04/08 06:29:32;;;;;;;3.15;1.67;;;13.60;99.90;;;;;;5534269;25;20008;-79
2024/04/08 06:31:59;;;;;;;5.15;1.00;;;13.50;99.90;;;;;;5532558;25;19997;-79
2024/04/08 06:34:25;;;;;;;1.20;0.80;;;13.50;99.90;;;;;;5533054;25;19994;-79
2024/04/08 06:36:50;;;;;;;1.60;0.80;;;13.50;99.90;;;;;;5532803;26;20008;-79
2024/04/08 06:39:16;;;;;;;11.20;1.00;;;13.60;99.90;;;;;;5533510;25;20003;-79
2024/04/08 06:41:41;;;;;;;3.10;0.70;;;13.60;99.90;;;;;;5532552;26;20062;-79
2024/04/08 06:44:07;;;;;;;3.28;0.88;;;13.60;99.90;;;;;;5534790;25;20008;-79
2024/04/08 06:46:33;;;;;;;2.95;1.10;;;13.70;99.90;;;;;;5534267;25;19997;-79
2024/04/08 06:48:58;;;;;;;3.00;0.77;;;13.60;99.90;;;;;;5532719;26;20006;-79
2024/04/08 06:51:24;;;;;;;1.92;0.80;;;13.80;99.90;;;;;;5531703;25;19993;-79
2024/04/08 06:53:49;;;;;;;5.53;1.17;;;13.70;99.90;;;;;;5533441;25;20009;-79
2024/04/08 06:56:15;;;;;;;2.85;0.77;;;13.80;99.90;;;;;;5533183;25;20452;-78
2024/04/08 06:58:41;;;;;;;3.53;0.65;;;13.90;99.90;;;;;;5532361;25;20324;-79
2024/04/08 07:01:07;;;;;;;2.47;1.05;;;14.00;99.90;;;;;;5531826;25;20005;-79
2024/04/08 07:03:32;;;;;;;2.97;0.63;;;14.00;99.90;;;;;;5530300;25;20334;-76
2024/04/08 07:05:58;;;;;;;4.15;0.73;;;14.10;99.90;;;;;;5529525;25;19994;-76
2024/04/08 07:08:24;;;;;;;1.23;0.50;;;14.20;99.90;;;;;;5528898;25;19997;-76
2024/04/08 07:10:49;;;;;;;4.40;0.73;;;14.20;99.90;;;;;;5529115;25;20472;-76
2024/04/08 07:13:17;;;;;;;4.03;1.23;;;14.30;99.90;;;;;;5528730;25;20012;-76
2024/04/08 07:15:42;;;;;;;2.60;0.60;;;14.40;99.90;;;;;;5527391;26;19997;-76
2024/04/08 07:18:08;;;;;;;4.22;0.85;;;14.50;99.90;;;;;;5528659;25;19993;-76
2024/04/08 07:20:34;;;;;;;4.47;1.00;;;14.50;99.90;;;;;;5527010;26;20338;-76
2024/04/08 07:23:00;;;;;;;1.88;0.70;;;14.60;99.90;;;;;;5528926;25;20309;-76
2024/04/08 07:25:26;;;;;;;5.13;0.70;;;14.70;99.90;;;;;;5527189;26;19997;-76
2024/04/08 07:27:52;;;;;;;1.17;0.50;;;14.80;99.90;;;;;;5528968;25;19993;-76
2024/04/08 07:30:22;;;;;;;1.27;0.52;;;14.80;99.90;;;;;;5528658;25;20004;-76
2024/04/08 07:32:48;;;;;;;6.07;0.88;;;14.90;99.90;;;;;;5527199;26;20452;-76
2024/04/08 07:35:19;;;;;;;1.63;0.70;;;15.00;99.90;;;;;;5528702;25;19993;-76
2024/04/08 07:37:45;;;;;;;4.30;1.27;;;14.90;99.90;;;;;;5528260;25;19998;-76
2024/04/08 07:40:10;;;;;;;5.13;0.90;;;15.00;99.90;;;;;;5526686;26;19993;-76
2024/04/08 07:42:36;;;;;;;1.58;0.28;;;15.10;99.90;;;;;;5526611;26;20001;-76
2024/04/08 07:45:01;;;;;;;1.92;0.93;;;15.10;99.90;;;;;;5528851;25;20022;-76
2024/04/08 07:47:27;;;;;;;2.22;0.65;;;15.10;99.90;;;;;;5528514;25;20362;-76
2024/04/08 07:49:56;;;;;;;4.00;0.88;;;15.20;99.90;;;;;;5526404;26;19997;-77
2024/04/08 07:52:21;;;;;;;4.35;0.68;;;15.20;99.90;;;;;;5528424;25;19997;-76
2024/04/08 07:54:47;;;;;;;4.22;0.85;;;15.20;99.90;;;;;;5528460;25;20005;-76
2024/04/08 07:57:13;;;;;;;2.05;0.60;;;15.20;99.90;;;;;;5528883;25;20000;-76
2024/04/08 07:59:38;;;;;;;4.38;0.85;;;15.30;99.90;;;;;;5528932;25;20008;-76
2024/04/08 08:02:05;;;;;;;2.80;0.80;;;15.20;99.90;;;;;;5529880;25;20437;-77
2024/04/08 08:04:30;;;;;;;2.42;0.80;;;15.40;99.90;;;;;;5537174;25;19994;-79
2024/04/08 08:06:56;;;;;;;6.35;1.55;;;15.50;99.90;;;;;;5539313;25;20008;-79
2024/04/08 08:09:21;;;;;;;2.88;0.90;;;15.60;99.90;;;;;;5539262;25;20005;-80
2024/04/08 08:11:47;;;;;;;1.45;0.82;;;15.80;99.90;;;;;;5540852;26;19994;-80
2024/04/08 08:14:13;;;;;;;2.30;0.60;;;15.80;99.90;;;;;;5539158;26;20001;-79
2024/04/08 08:16:38;;;;;;;3.28;0.52;;;15.90;99.90;;;;;;5541039;25;20004;-79
2024/04/08 08:19:05;;;;;;;5.47;0.47;;;;;;;;;;5539381;25;20008;-79
2024/04/08 08:21:31;;;;;;;2.03;0.38;;;;;;;;;;5541524;26;20008;-80
2024/04/08 08:23:57;;;;;;;1.67;0.40;;;16.00;99.90;;;;;;5540047;26;20003;-80
2024/04/08 08:26:23;;;;;;;4.55;0.30;;;16.10;99.90;;;;;;5540512;25;20324;-80
2024/04/08 08:28:49;;;;;;;1.17;0.30;;;16.00;99.90;;;;;;5540058;26;19986;-80
2024/04/08 08:31:14;;;;;;;1.95;0.40;;;16.10;99.90;;;;;;5540410;25;19993;-80
2024/04/08 08:33:40;;;;;;;1.67;0.38;;;16.10;99.90;;;;;;5541246;25;20047;-80
2024/04/08 08:36:06;;;;;;;1.77;0.35;;;16.20;99.90;;;;;;5541159;26;19990;-80
2024/04/08 08:38:33;;;;;;;1.70;0.30;;;16.10;99.90;;;;;;5541758;25;19994;-80
2024/04/08 08:41:07;;;;;;;2.05;0.85;;;16.30;99.90;;;;;;5539212;25;20017;-79
2024/04/08 08:43:33;;;;;;;1.90;0.20;;;16.30;99.90;;;;;;5539698;25;20448;-79
2024/04/08 08:46:00;;;;;;;2.20;0.50;;;16.40;99.90;;;;;;5541185;26;20005;-79
2024/04/08 08:48:26;;;;;;;1.13;0.10;;;16.60;99.90;;;;;;5538726;26;19993;-80
2024/04/08 08:50:51;;;;;;;4.20;0.38;;;16.50;99.90;;;;;;5541748;25;20005;-80
2024/04/08 08:53:17;;;;;;;2.70;0.28;;;16.70;99.90;;;;;;5541802;25;20476;-80
2024/04/08 08:55:47;;;;;;;1.27;0.47;;;17.00;99.90;;;;;;5539861;25;19993;-80
2024/04/08 08:58:14;;;;;;;3.33;0.45;;;16.90;99.90;;;;;;5539900;26;20029;-80
2024/04/08 09:00:40;;;;;;;4.60;0.60;;;17.10;99.90;;;;;;5539778;25;20083;-80
2024/04/08 09:03:13;;;;;;;1.55;0.10;;;17.20;99.90;;;;;;5539564;26;20070;-80
2024/04/08 09:05:39;;;;;;;1.88;0.40;;;17.20;99.90;;;;;;5539377;25;20050;-80
2024/04/08 09:08:06;;;;;;;2.00;0.40;;;17.40;99.90;;;;;;5538927;26;20385;-80
2024/04/08 09:10:41;;;;;;;4.82;0.35;;;17.40;99.90;;;;;;5539709;25;20005;-80
2024/04/08 09:13:21;;;;;;;2.47;0.30;;;17.40;99.90;;;;;;5539830;25;20064;-81
2024/04/08 09:15:53;;;;;;;3.67;0.70;;;17.40;99.90;;;;;;5540543;25;20425;-80
2024/04/08 09:18:20;;;;;;;3.63;0.90;;;17.40;99.90;;;;;;5537878;25;19997;-80
2024/04/08 09:20:46;;;;;;;0.50;0.08;;;17.50;99.90;;;;;;5539294;25;19998;-80
2024/04/08 09:23:12;;;;;;;2.88;0.22;;;17.60;99.90;;;;;;5539171;25;20008;-80
2024/04/08 09:25:39;;;;;;;2.08;0.40;;;17.70;99.90;;;;;;5538110;26;20026;-80
2024/04/08 09:28:06;;;;;;;1.85;0.40;;;17.70;99.90;;;;;;5539395;25;20005;-80
2024/04/08 09:30:32;;;;;;;2.40;0.38;;;17.70;99.90;;;;;;5540765;25;20008;-80
2024/04/08 09:32:58;;;;;;;3.70;0.47;;;17.70;99.90;;;;;;5539791;25;20000;-80
2024/04/08 09:35:25;;;;;;;6.55;0.75;;;17.90;99.90;;;;;;5539502;26;19989;-80
2024/04/08 09:37:54;;;;;;;5.30;1.45;;;18.00;99.90;;;;;;5539066;25;19989;-80
2024/04/08 09:40:23;;;;;;;3.90;0.70;;;18.00;99.90;;;;;;5540913;25;19994;-80
2024/04/08 09:42:51;;;;;;;5.05;1.48;;;18.10;99.90;;;;;;5541081;25;20001;-80
2024/04/08 09:45:18;;;;;;;3.40;0.80;;;18.10;99.90;;;;;;5539375;25;20061;-80
2024/04/08 09:47:45;;;;;;;5.63;1.17;;;18.10;99.90;;;;;;5540342;25;19994;-81
2024/04/08 09:50:12;;;;;;;4.80;0.93;;;18.10;99.90;;;;;;5538981;25;20005;-80
2024/04/08 09:52:41;;;;;;;3.63;0.85;;;18.20;99.90;;;;;;5538104;25;20055;-80
2024/04/08 09:55:09;;;;;;;3.38;0.65;;;18.40;99.90;;;;;;5539526;25;19994;-80
2024/04/08 09:57:44;;;;;;;1.70;0.30;;;18.50;99.90;;;;;;5540022;25;20017;-80
2024/04/08 10:00:15;;;;;;;3.33;0.93;;;18.50;99.90;;;;;;5539943;26;19993;-80
2024/04/08 10:02:44;;;;;;;3.78;0.77;;;18.60;99.90;;;;;;5543534;25;20397;-80
2024/04/08 10:05:15;;;;;;;4.20;0.88;;;18.70;99.90;;;;;;5544394;25;20004;-80
2024/04/08 10:07:41;;;;;;;5.18;1.52;;;18.90;99.90;;;;;;5542159;26;19997;-80
2024/04/08 10:10:13;;;;;;;1.67;0.80;;;19.10;99.90;;;;;;5544172;25;20065;-80
2024/04/08 10:12:42;;;;;;;3.97;0.75;;;19.10;99.90;;;;;;5542142;25;20038;-80
2024/04/08 10:15:11;;;;;;;2.60;0.63;;;18.90;99.90;;;;;;5542766;26;19993;-80
2024/04/08 10:17:37;;;;;;;2.55;0.57;;;18.80;99.90;;;;;;5543660;25;19997;-80
2024/04/08 10:20:07;;;;;;;2.63;0.60;;;18.70;99.90;;;;;;5542252;25;19994;-80
2024/04/08 10:22:39;;;;;;;2.78;0.80;;;18.60;99.90;;;;;;5543854;25;20001;-80
2024/04/08 10:25:25;;;;;;;1.40;0.70;;;18.50;99.90;;;;;;5542352;26;20000;-80
2024/04/08 10:27:59;;;;;;;3.17;0.95;;;18.50;99.90;;;;;;5541806;26;20010;-80
2024/04/08 10:30:25;;;;;;;5.20;0.70;;;18.50;99.90;;;;;;5541560;26;19998;-79
2024/04/08 10:32:51;;;;;;;2.15;0.57;;;;;;;;;;5543504;25;20033;-79
2024/04/08 10:35:20;;;;;;;3.25;0.70;;;18.50;99.90;;;;;;5542318;26;19990;-79
2024/04/08 10:37:45;;;;;;;;;;;18.50;99.90;;;;;;5544705;25;20330;-79
2024/04/08 10:40:11;;;;;;;2.80;0.50;;;18.60;99.90;;;;;;5541715;25;19923;-79
2024/04/08 10:42:37;;;;;;;2.97;0.68;;;18.60;99.90;;;;;;5542320;25;20001;-79
2024/04/08 10:45:06;;;;;;;1.63;0.50;;;18.70;99.90;;;;;;5542504;25;20030;-79
2024/04/08 10:47:32;;;;;;;2.90;0.85;;;18.70;99.90;;;;;;5543469;25;20436;-80
2024/04/08 10:49:58;;;;;;;2.80;0.70;;;18.80;99.90;;;;;;5543441;26;20009;-79
2024/04/08 10:52:24;;;;;;;2.38;0.77;;;18.60;99.90;;;;;;5543067;25;20004;-79
2024/04/08 10:54:49;;;;;;;10.85;1.50;;;18.40;99.90;;;;;;5544608;25;20067;-79
2024/04/08 10:57:15;;;;;;;5.10;0.65;;;18.30;99.90;;;;;;5543392;25;20006;-80
2024/04/08 10:59:40;;;;;;;2.50;0.30;;;18.20;99.90;;;;;;5544268;25;20001;-79
2024/04/08 11:02:14;;;;;;;3.83;0.82;;;18.30;99.90;;;;;;5543033;25;20005;-79
2024/04/08 11:04:40;;;;;;;4.30;1.02;;;18.20;99.90;;;;;;5542722;26;20069;-80
2024/04/08 11:07:05;;;;;;;2.85;0.85;;;18.40;99.90;;;;;;5540709;26;20445;-80
2024/04/08 11:09:31;;;;;;;5.03;0.60;;;18.50;99.90;;;;;;5534050;25;20437;-80
2024/04/08 11:11:57;;;;;;;4.30;0.77;;;18.70;99.90;;;;;;5530365;25;19997;-78
2024/04/08 11:14:22;;;;;;;8.60;1.20;;;18.70;99.90;;;;;;5527838;25;20018;-78
2024/04/08 11:16:50;;;;;;;3.08;0.68;;;18.80;99.90;;;;;;5529477;25;20009;-78
2024/04/08 11:19:17;;;;;;;3.40;0.93;;;18.90;99.90;;;;;;5536346;25;20065;-79
2024/04/08 11:21:44;;;;;;;2.65;0.50;;;19.00;99.90;;;;;;5534413;26;19998;-79
2024/04/08 11:24:13;;;;;;;4.22;0.50;;;19.20;99.90;;;;;;5531437;25;20004;-78
2024/04/08 11:26:38;;;;;;;;;;;19.20;99.90;;;;;;5529929;25;19997;-78
2024/04/08 11:29:04;;;;;;;5.28;0.60;;;19.20;99.90;;;;;;5529520;25;19930;-78
2024/04/08 11:31:31;;;;;;;2.88;0.73;;;19.30;99.90;;;;;;5527464;26;20005;-78
2024/04/08 11:33:57;;;;;;;2.58;0.30;;;19.40;99.90;;;;;;5529659;25;19993;-78
2024/04/08 11:36:22;;;;;;;5.22;0.40;;;19.50;99.90;;;;;;5529394;25;20460;-77
2024/04/08 11:38:48;;;;;;;5.13;0.82;;;19.50;99.90;;;;;;5528884;25;20004;-78
2024/04/08 11:41:14;;;;;;;3.05;0.60;;;19.70;99.90;;;;;;5529396;25;20042;-78
2024/04/08 11:43:39;;;;;;;3.45;0.73;;;19.90;99.90;;;;;;5528220;25;19993;-78
2024/04/08 11:46:05;;;;;;;3.63;0.93;;;20.30;99.90;;;;;;5525693;25;20012;-78
2024/04/08 11:48:31;;;;;;;2.30;0.40;;;20.50;99.90;;;;;;5526613;25;19989;-79
2024/04/08 11:50:56;;;;;;;4.13;0.70;;;20.50;99.90;;;;;;5526654;26;20000;-79
2024/04/08 11:53:22;;;;;;;2.05;0.50;;;21.00;99.90;;;;;;5528990;25;20329;-78
2024/04/08 11:55:48;;;;;;;3.65;0.40;;;21.10;99.90;;;;;;5530510;25;19990;-78
2024/04/08 11:58:14;;;;;;;2.22;0.45;;;21.10;99.90;;;;;;5530804;25;20003;-79
2024/04/08 12:00:39;;;;;;;1.38;0.73;;;21.00;99.90;;;;;;5529939;25;19993;-79
2024/04/08 12:03:05;;;;;;;3.55;1.00;;;20.80;99.90;;;;;;5530149;25;20000;-78
2024/04/08 12:05:31;;;;;;;2.55;0.25;;;20.60;99.90;;;;;;5530263;25;20003;-78
2024/04/08 12:07:56;;;;;;;3.83;0.73;;;20.50;99.90;;;;;;5529946;25;19993;-78
2024/04/08 12:10:22;;;;;;;2.05;0.30;;;20.40;99.90;;;;;;5528067;26;20001;-79
2024/04/08 12:12:47;;;;;;;2.17;0.20;;;20.30;99.90;;;;;;5529967;25;20003;-79
2024/04/08 12:15:18;;;;;;;2.75;0.30;;;20.30;99.90;;;;;;5529796;25;19994;-79
2024/04/08 12:17:43;;;;;;;2.00;0.50;;;20.20;99.90;;;;;;5529432;25;20000;-78
2024/04/08 12:20:11;;;;;;;2.80;0.30;;;20.10;99.90;;;;;;5527641;25;19990;-78
2024/04/08 12:22:36;;;;;;;1.77;0.30;;;20.00;99.90;;;;;;5529540;25;20314;-78
2024/04/08 12:25:02;;;;;;;3.05;0.55;;;20.00;99.90;;;;;;5528554;25;20004;-78
2024/04/08 12:27:30;;;;;;;1.35;0.15;;;19.80;99.90;;;;;;5529009;25;20001;-78
2024/04/08 12:29:55;;;;;;;1.90;0.50;;;19.60;99.90;;;;;;5529191;25;20022;-79
2024/04/08 12:32:22;;;;;;;1.25;0.35;;;19.60;99.90;;;;;;5527064;25;20058;-79
2024/04/08 12:34:48;;;;;;;2.08;0.30;;;19.40;99.90;;;;;;5527359;26;20001;-79
2024/04/08 12:37:17;;;;;;;0.40;0.20;;;19.20;99.90;;;;;;5527322;26;19989;-79
2024/04/08 12:39:43;;;;;;;0.80;0.32;;;19.20;99.90;;;;;;5527420;25;20399;-78
2024/04/08 12:42:08;;;;;;;2.78;0.45;;;19.30;99.90;;;;;;5529586;25;19994;-78
2024/04/08 12:44:34;;;;;;;4.03;0.35;;;19.30;99.90;;;;;;5529382;25;20017;-78
2024/04/08 12:47:00;;;;;;;6.68;0.38;;;19.20;99.90;;;;;;5528830;25;19994;-78